createdAt,value
2022-12-26T00:02:19.512Z,54.20
2022-12-26T00:04:53.680Z,39.30
2022-12-26T00:07:26.413Z,34.50
2022-12-26T00:10:01.623Z,36.20
2022-12-26T00:12:36.600Z,35.00
2022-12-26T00:15:10.019Z,35.40
2022-12-26T00:17:46.360Z,38.70
2022-12-26T00:20:18.892Z,40.00
2022-12-26T00:22:51.261Z,45.00
2022-12-26T00:25:27.239Z,46.60
2022-12-26T00:28:01.683Z,43.60
2022-12-26T00:30:34.068Z,43.50
2022-12-26T00:33:06.583Z,42.90
2022-12-26T00:35:38.890Z,43.60
2022-12-26T00:38:11.182Z,43.00
2022-12-26T00:40:43.505Z,38.50
2022-12-26T00:43:16.235Z,44.60
2022-12-26T00:45:50.697Z,56.20
2022-12-26T00:48:23.222Z,46.40
2022-12-26T00:50:59.817Z,45.00
2022-12-26T00:53:32.347Z,47.30
2022-12-26T00:56:05.060Z,39.60
2022-12-26T00:58:37.802Z,46.90
2022-12-26T01:01:14.629Z,43.90
2022-12-26T01:03:48.837Z,46.40
2022-12-26T01:06:23.453Z,40.20
2022-12-26T01:08:56.502Z,34.70
2022-12-26T01:11:44.418Z,43.30
2022-12-26T01:14:21.208Z,42.80
2022-12-26T01:16:53.602Z,39.50
2022-12-26T01:19:26.341Z,43.20
2022-12-26T01:22:01.656Z,44.80
2022-12-26T01:24:34.326Z,38.90
2022-12-26T01:27:06.772Z,41.90
2022-12-26T01:29:39.158Z,48.30
2022-12-26T01:32:11.688Z,47.50
2022-12-26T01:34:44.222Z,42.40
2022-12-26T01:37:19.772Z,44.30
2022-12-26T01:39:53.011Z,45.10
2022-12-26T01:42:27.585Z,43.30
2022-12-26T01:45:04.389Z,45.00
2022-12-26T01:47:48.552Z,46.30
2022-12-26T01:50:37.232Z,43.50
2022-12-26T01:53:16.437Z,39.20
2022-12-26T01:55:53.147Z,44.80
2022-12-26T01:58:30.061Z,42.40
2022-12-26T02:01:06.362Z,38.00
2022-12-26T02:04:00.305Z,40.30
2022-12-26T02:06:33.274Z,48.20
2022-12-26T02:09:06.695Z,39.20
2022-12-26T02:11:44.142Z,37.60
2022-12-26T02:14:16.662Z,34.40
2022-12-26T02:16:49.682Z,43.10
2022-12-26T02:19:30.896Z,39.40
2022-12-26T02:22:33.767Z,38.40
2022-12-26T02:25:29.697Z,35.80
2022-12-26T02:28:24.972Z,38.30
2022-12-26T02:31:09.416Z,39.30
2022-12-26T02:33:53.423Z,33.70
2022-12-26T02:36:52.530Z,38.20
2022-12-26T02:39:44.899Z,36.90
2022-12-26T02:42:31.835Z,42.00
2022-12-26T02:45:28.045Z,41.40
2022-12-26T02:48:08.015Z,39.40
2022-12-26T02:51:11.644Z,43.10
2022-12-26T02:54:09.781Z,39.40
2022-12-26T02:57:04.294Z,48.50
2022-12-26T03:00:05.203Z,46.10
2022-12-26T03:03:00.143Z,41.50
2022-12-26T03:05:55.420Z,42.80
2022-12-26T03:08:51.685Z,43.30
2022-12-26T03:11:46.041Z,42.70
2022-12-26T03:14:22.516Z,38.80
2022-12-26T03:17:18.348Z,42.60
2022-12-26T03:20:00.938Z,42.40
2022-12-26T03:22:42.584Z,41.80
2022-12-26T03:25:38.498Z,42.60
2022-12-26T03:28:14.163Z,36.90
2022-12-26T03:30:52.519Z,37.80
2022-12-26T03:33:45.905Z,38.60
2022-12-26T03:36:26.418Z,39.90
2022-12-26T03:39:10.097Z,42.20
2022-12-26T03:42:07.981Z,40.40
2022-12-26T03:45:06.074Z,36.90
2022-12-26T03:48:01.818Z,44.20
2022-12-26T03:50:57.014Z,36.40
2022-12-26T03:53:52.865Z,39.60
2022-12-26T03:56:52.354Z,40.90
2022-12-26T03:59:49.665Z,41.00
2022-12-26T04:02:40.504Z,41.00
2022-12-26T04:05:33.671Z,44.60
2022-12-26T04:08:32.355Z,42.70
2022-12-26T04:11:23.947Z,36.20
2022-12-26T04:14:19.333Z,39.80
2022-12-26T04:17:13.081Z,44.70
2022-12-26T04:20:01.650Z,43.60
2022-12-26T04:23:02.702Z,43.50
2022-12-26T04:26:01.048Z,41.90
2022-12-26T04:28:50.972Z,45.00
2022-12-26T04:31:46.225Z,47.20
2022-12-26T04:34:46.937Z,40.90
2022-12-26T04:40:34.958Z,42.00
2022-12-26T04:43:47.530Z,46.60
2022-12-26T04:46:20.662Z,40.70
2022-12-26T04:49:13.652Z,45.30
2022-12-26T04:51:52.626Z,49.80
2022-12-26T04:54:25.205Z,49.60
2022-12-26T04:56:58.028Z,42.70
2022-12-26T04:59:31.588Z,44.70
2022-12-26T05:02:21.782Z,46.30
2022-12-26T05:05:12.248Z,42.40
2022-12-26T05:08:16.509Z,50.50
2022-12-26T05:10:49.242Z,42.90
2022-12-26T05:13:22.033Z,40.80
2022-12-26T05:16:11.813Z,44.20
2022-12-26T05:19:02.178Z,42.00
2022-12-26T05:21:52.457Z,38.10
2022-12-26T05:24:43.932Z,42.50
2022-12-26T05:27:35.913Z,37.60
2022-12-26T05:30:10.521Z,40.80
2022-12-26T05:33:00.527Z,37.70
2022-12-26T05:35:33.387Z,36.90
2022-12-26T05:38:06.121Z,44.10
2022-12-26T05:40:38.628Z,34.90
2022-12-26T05:43:11.043Z,32.00
2022-12-26T05:45:43.867Z,35.20
2022-12-26T05:48:20.303Z,33.80
2022-12-26T05:50:52.851Z,35.60
2022-12-26T05:53:25.199Z,32.30
2022-12-26T05:55:57.703Z,27.90
2022-12-26T05:58:30.091Z,29.00
2022-12-26T06:01:14.746Z,25.20
2022-12-26T06:03:50.635Z,69.40
2022-12-26T06:06:24.268Z,38.50
2022-12-26T06:08:57.795Z,26.30
2022-12-26T06:11:30.386Z,23.40
2022-12-26T06:14:04.828Z,25.50
2022-12-26T06:16:37.579Z,26.00
2022-12-26T06:19:10.039Z,18.90
2022-12-26T06:21:42.566Z,21.00
2022-12-26T06:24:15.275Z,23.10
2022-12-26T06:26:48.041Z,22.50
2022-12-26T06:29:23.401Z,23.70
2022-12-26T06:31:55.878Z,18.30
2022-12-26T06:34:28.578Z,21.70
2022-12-26T06:37:01.384Z,24.00
2022-12-26T06:39:33.960Z,20.30
2022-12-26T06:42:06.495Z,27.70
2022-12-26T06:44:38.934Z,20.80
2022-12-26T06:47:14.750Z,19.20
2022-12-26T06:49:47.547Z,22.40
2022-12-26T06:52:19.861Z,24.90
2022-12-26T06:54:52.366Z,21.60
2022-12-26T06:57:24.758Z,18.30
2022-12-26T06:59:57.132Z,18.60
2022-12-26T07:02:32.678Z,22.10
2022-12-26T07:05:08.613Z,23.00
2022-12-26T07:07:40.906Z,21.90
2022-12-26T07:10:13.969Z,23.90
2022-12-26T07:12:46.827Z,23.60
2022-12-26T07:15:19.323Z,22.50
2022-12-26T07:17:53.172Z,22.90
2022-12-26T07:20:28.462Z,21.10
2022-12-26T07:23:00.856Z,23.00
2022-12-26T07:25:33.298Z,19.40
2022-12-26T07:28:05.874Z,22.60
2022-12-26T07:30:38.758Z,21.60
2022-12-26T07:33:11.188Z,22.20
2022-12-26T07:35:43.552Z,21.80
2022-12-26T07:38:16.520Z,22.20
2022-12-26T07:40:51.421Z,24.10
2022-12-26T07:43:24.805Z,19.50
2022-12-26T07:46:00.807Z,24.50
2022-12-26T07:48:34.308Z,19.10
2022-12-26T07:51:06.758Z,22.30
2022-12-26T07:53:39.476Z,26.40
2022-12-26T07:56:11.964Z,21.30
2022-12-26T07:58:44.272Z,24.80
2022-12-26T08:01:16.734Z,21.10
2022-12-26T08:03:52.862Z,20.50
2022-12-26T08:06:25.643Z,22.10
2022-12-26T08:08:57.952Z,23.10
2022-12-26T08:11:33.181Z,21.60
2022-12-26T08:14:07.270Z,22.60
2022-12-26T08:16:39.825Z,21.60
2022-12-26T08:19:12.958Z,24.10
2022-12-26T08:21:45.572Z,25.30
2022-12-26T08:24:18.063Z,21.90
2022-12-26T08:26:50.760Z,19.20
2022-12-26T08:29:23.152Z,18.00
2022-12-26T08:31:56.326Z,20.30
2022-12-26T08:34:32.780Z,22.10
2022-12-26T08:37:05.073Z,25.30
2022-12-26T08:39:38.032Z,24.70
2022-12-26T08:42:10.479Z,22.60
2022-12-26T08:44:42.834Z,26.90
2022-12-26T08:47:15.521Z,23.50
2022-12-26T08:49:47.930Z,23.30
2022-12-26T08:52:20.386Z,22.90
2022-12-26T08:54:52.875Z,22.40
2022-12-26T08:57:25.345Z,23.20
2022-12-26T08:59:57.747Z,23.10
2022-12-26T09:02:30.372Z,26.70
2022-12-26T09:05:03.147Z,32.70
2022-12-26T09:07:35.723Z,24.30
2022-12-26T09:10:08.962Z,23.40
2022-12-26T09:12:41.268Z,26.90
2022-12-26T09:15:13.949Z,24.30
2022-12-26T09:17:47.091Z,25.20
2022-12-26T09:20:19.868Z,26.70
2022-12-26T09:22:52.474Z,26.00
2022-12-26T09:25:27.768Z,26.60
2022-12-26T09:28:00.584Z,28.20
2022-12-26T09:30:33.458Z,28.00
2022-12-26T09:33:07.880Z,28.90
2022-12-26T09:35:42.570Z,33.80
2022-12-26T09:38:15.432Z,28.40
2022-12-26T09:40:59.863Z,25.30
2022-12-26T09:43:50.234Z,25.70
2022-12-26T09:46:33.215Z,30.00
2022-12-26T09:49:13.495Z,22.50
2022-12-26T09:51:49.842Z,25.60
2022-12-26T09:54:33.041Z,25.30
2022-12-26T09:57:15.189Z,26.40
2022-12-26T09:59:55.826Z,22.50
2022-12-26T10:02:32.449Z,25.90
2022-12-26T10:05:06.810Z,22.80
2022-12-26T10:07:45.393Z,24.20
2022-12-26T10:10:21.852Z,25.10
2022-12-26T10:13:01.875Z,27.70
2022-12-26T10:15:47.200Z,22.00
2022-12-26T10:18:36.638Z,24.90
2022-12-26T10:21:30.519Z,25.40
2022-12-26T10:24:09.928Z,23.50
2022-12-26T10:26:45.346Z,24.10
2022-12-26T10:29:26.385Z,24.40
2022-12-26T10:32:01.635Z,24.00
2022-12-26T10:34:38.355Z,22.70
2022-12-26T10:37:19.384Z,22.40
2022-12-26T10:39:57.499Z,20.70
2022-12-26T10:42:35.740Z,23.50
2022-12-26T10:45:26.472Z,25.30
2022-12-26T10:47:59.528Z,23.00
2022-12-26T10:50:34.982Z,24.80
2022-12-26T10:53:11.728Z,20.60
2022-12-26T10:55:45.480Z,23.50
2022-12-26T10:58:23.228Z,27.30
2022-12-26T11:00:55.830Z,22.00
2022-12-26T11:03:28.347Z,22.40
2022-12-26T11:06:09.181Z,21.60
2022-12-26T11:08:49.289Z,21.70
2022-12-26T11:11:46.047Z,25.20
2022-12-26T11:14:43.004Z,25.70
2022-12-26T11:17:26.876Z,24.70
2022-12-26T11:20:23.979Z,23.50
2022-12-26T11:23:18.053Z,27.40
2022-12-26T11:25:55.000Z,27.20
2022-12-26T11:28:33.696Z,24.40
2022-12-26T11:31:21.125Z,24.20
2022-12-26T11:33:54.393Z,24.70
2022-12-26T11:36:34.822Z,24.50
2022-12-26T11:39:21.003Z,22.50
2022-12-26T11:41:54.366Z,22.20
2022-12-26T11:44:32.657Z,23.20
2022-12-26T11:47:13.901Z,22.10
2022-12-26T11:49:55.561Z,19.00
2022-12-26T11:52:40.780Z,24.40
2022-12-26T11:55:35.047Z,16.30
2022-12-26T11:58:20.376Z,16.80
2022-12-26T12:01:08.175Z,21.30
2022-12-26T12:03:49.671Z,19.70
2022-12-26T12:06:46.462Z,16.80
2022-12-26T12:09:26.399Z,19.70
2022-12-26T12:12:05.194Z,17.50
2022-12-26T12:14:54.393Z,22.40
2022-12-26T12:17:35.882Z,20.10
2022-12-26T12:20:25.222Z,22.50
2022-12-26T12:23:13.629Z,19.60
2022-12-26T12:25:58.043Z,17.80
2022-12-26T12:29:09.681Z,19.20
2022-12-26T12:31:53.079Z,19.20
2022-12-26T12:34:39.472Z,16.50
2022-12-26T12:37:36.507Z,15.50
2022-12-26T12:40:23.042Z,17.80
2022-12-26T12:43:10.835Z,18.80
2022-12-26T12:45:54.631Z,16.00
2022-12-26T12:48:49.933Z,18.90
2022-12-26T12:51:30.651Z,20.00
2022-12-26T12:54:26.762Z,15.90
2022-12-26T12:57:07.575Z,18.90
2022-12-26T12:59:53.082Z,22.40
2022-12-26T13:02:36.721Z,17.60
2022-12-26T13:05:31.620Z,19.20
2022-12-26T13:08:09.500Z,18.20
2022-12-26T13:10:47.805Z,20.60
2022-12-26T13:13:29.576Z,18.80
2022-12-26T13:16:07.779Z,22.60
2022-12-26T13:18:46.928Z,18.40
2022-12-26T13:21:22.226Z,19.40
2022-12-26T13:24:19.419Z,15.90
2022-12-26T13:26:59.257Z,19.80
2022-12-26T13:29:44.884Z,18.90
2022-12-26T13:32:22.098Z,21.00
2022-12-26T13:34:56.340Z,21.40
2022-12-26T13:37:56.437Z,21.70
2022-12-26T13:40:32.913Z,23.00
2022-12-26T13:43:34.538Z,21.90
2022-12-26T13:46:27.301Z,21.60
2022-12-26T13:49:02.933Z,21.70
2022-12-26T13:51:53.855Z,20.10
2022-12-26T13:54:28.713Z,20.00
2022-12-26T13:57:32.305Z,22.60
2022-12-26T14:00:19.659Z,24.90
2022-12-26T14:03:31.774Z,24.70
2022-12-26T14:06:21.062Z,21.50
2022-12-26T14:09:21.629Z,24.30
2022-12-26T14:12:08.793Z,23.40
2022-12-26T14:14:57.090Z,28.00
2022-12-26T14:17:42.452Z,32.90
2022-12-26T14:20:27.417Z,38.80
2022-12-26T14:23:08.653Z,29.00
2022-12-26T14:25:53.747Z,45.80
2022-12-26T14:28:32.065Z,50.30
2022-12-26T14:31:18.157Z,47.80
2022-12-26T14:33:56.019Z,43.80
2022-12-26T14:36:41.917Z,31.80
2022-12-26T14:39:29.751Z,30.80
2022-12-26T14:42:42.482Z,26.80
2022-12-26T14:45:51.025Z,26.70
2022-12-26T14:48:50.389Z,21.10
2022-12-26T14:51:42.261Z,19.70
2022-12-26T14:54:51.662Z,21.00
2022-12-26T14:57:56.541Z,20.50
2022-12-26T15:00:33.609Z,18.90
2022-12-26T15:03:43.546Z,23.20
2022-12-26T15:06:50.383Z,19.90
2022-12-26T15:09:49.956Z,17.90
2022-12-26T15:12:58.997Z,19.20
2022-12-26T15:15:35.656Z,20.50
2022-12-26T15:18:37.735Z,16.90
2022-12-26T15:21:36.022Z,20.30
2022-12-26T15:25:17.643Z,19.20
2022-12-26T15:28:10.636Z,17.90
2022-12-26T15:31:07.011Z,16.60
2022-12-26T15:33:44.272Z,17.50
2022-12-26T15:36:28.021Z,20.90
2022-12-26T15:39:04.831Z,18.80
2022-12-26T15:41:48.342Z,21.20
2022-12-26T15:44:30.065Z,23.00
2022-12-26T15:47:19.789Z,20.80
2022-12-26T15:50:04.803Z,19.50
2022-12-26T15:52:52.045Z,22.40
2022-12-26T15:55:45.236Z,23.40
2022-12-26T15:58:37.351Z,20.60
2022-12-26T16:01:15.881Z,18.00
2022-12-26T16:03:55.091Z,18.90
2022-12-26T16:06:44.170Z,18.80
2022-12-26T16:09:36.579Z,19.20
2022-12-26T16:12:26.870Z,20.70
2022-12-26T16:15:18.204Z,22.30
2022-12-26T16:17:50.582Z,20.70
2022-12-26T16:20:49.578Z,21.90
2022-12-26T16:23:24.710Z,20.50
2022-12-26T16:25:59.690Z,30.20
2022-12-26T16:28:35.783Z,31.10
2022-12-26T16:31:09.300Z,28.00
2022-12-26T16:33:44.297Z,24.40
2022-12-26T16:36:21.519Z,25.30
2022-12-26T16:38:55.099Z,25.70
2022-12-26T16:41:29.667Z,21.70
2022-12-26T16:44:30.648Z,22.90
2022-12-26T16:47:06.263Z,20.30
2022-12-26T16:49:41.685Z,22.30
2022-12-26T16:52:46.423Z,20.70
2022-12-26T16:55:44.182Z,22.80
2022-12-26T16:58:26.916Z,24.30
2022-12-26T17:04:25.902Z,20.90
2022-12-26T17:07:03.722Z,19.90
2022-12-26T17:09:44.844Z,21.10
2022-12-26T17:12:41.257Z,24.30
2022-12-26T17:15:25.897Z,23.30
2022-12-26T17:18:22.917Z,23.50
2022-12-26T17:20:56.337Z,23.60
2022-12-26T17:23:59.885Z,25.10
2022-12-26T17:26:35.042Z,23.80
2022-12-26T17:29:56.102Z,22.80
2022-12-26T17:32:45.292Z,24.90
2022-12-26T17:35:46.964Z,24.80
2022-12-26T17:38:30.943Z,21.70
2022-12-26T17:41:52.755Z,21.70
2022-12-26T17:44:43.795Z,28.40
2022-12-26T17:47:48.215Z,24.80
2022-12-26T17:50:22.348Z,22.10
2022-12-26T17:53:42.161Z,22.50
2022-12-26T17:56:21.025Z,20.00
2022-12-26T17:58:57.472Z,24.10
2022-12-26T18:01:30.471Z,23.30
2022-12-26T18:04:03.718Z,21.30
2022-12-26T18:06:36.712Z,23.30
2022-12-26T18:09:26.645Z,21.80
2022-12-26T18:12:11.849Z,21.70
2022-12-26T18:14:47.474Z,23.20
2022-12-26T18:17:21.679Z,22.50
2022-12-26T18:19:54.656Z,22.50
2022-12-26T18:22:32.975Z,23.20
2022-12-26T18:25:28.105Z,20.30
2022-12-26T18:28:03.108Z,20.10
2022-12-26T18:30:48.072Z,20.60
2022-12-26T18:33:46.948Z,18.90
2022-12-26T18:36:26.594Z,20.30
2022-12-26T18:39:02.950Z,24.90
2022-12-26T18:41:56.106Z,20.80
2022-12-26T18:44:38.377Z,23.00
2022-12-26T19:00:52.456Z,27.00
2022-12-26T19:03:28.037Z,18.00
2022-12-26T19:06:03.748Z,20.20
2022-12-26T19:08:39.817Z,17.20
2022-12-26T19:11:21.174Z,15.10
2022-12-26T19:13:54.866Z,21.00
2022-12-26T19:16:28.171Z,20.70
2022-12-26T19:19:03.645Z,20.90
